createdAt,value
2023-04-15T00:00:46.483Z,73.8307
2023-04-15T00:01:48.319Z,73.7910
2023-04-15T00:02:50.374Z,73.9562
2023-04-15T00:03:52.265Z,74.2921
2023-04-15T00:04:53.990Z,74.2326
2023-04-15T00:05:55.497Z,74.9035
2023-04-15T00:06:57.050Z,74.6423
2023-04-15T00:07:58.571Z,74.9739
2023-04-15T00:09:00.769Z,75.2740
2023-04-15T00:10:00.468Z,74.3972
2023-04-15T00:11:02.095Z,75.1421
2023-04-15T00:12:03.689Z,75.2733
2023-04-15T00:13:05.280Z,74.1500
2023-04-15T00:14:06.845Z,74.8783
2023-04-15T00:15:08.373Z,73.5083
2023-04-15T00:16:09.954Z,73.8533
2023-04-15T00:17:11.455Z,73.6620
2023-04-15T00:18:13.948Z,73.2377
2023-04-15T00:19:13.099Z,73.3171
2023-04-15T00:20:14.633Z,72.9895
2023-04-15T00:21:16.198Z,74.9739
2023-04-15T00:22:17.736Z,74.4639
2023-04-15T00:23:19.278Z,74.5049
2023-04-15T00:24:20.867Z,73.0122
2023-04-15T00:25:22.386Z,73.0257
2023-04-15T00:26:23.914Z,74.9453
2023-04-15T00:27:25.425Z,74.1026
2023-04-15T00:28:26.940Z,74.1840
2023-04-15T00:29:28.474Z,75.2056
2023-04-15T00:30:30.313Z,74.3789
2023-04-15T00:31:31.794Z,73.4828
2023-04-15T00:32:33.338Z,74.5820
2023-04-15T00:33:34.884Z,75.4459
2023-04-15T00:34:36.403Z,75.7052
2023-04-15T00:35:37.931Z,74.4291
2023-04-15T00:36:39.429Z,74.2385
2023-04-15T00:37:40.905Z,74.6934
2023-04-15T00:38:42.405Z,74.6467
2023-04-15T00:39:43.906Z,74.9243
2023-04-15T00:40:45.388Z,75.2971
2023-04-15T00:41:46.928Z,74.9573
2023-04-15T00:42:48.478Z,74.9040
2023-04-15T00:43:49.913Z,75.4721
2023-04-15T00:44:51.477Z,75.9219
2023-04-15T00:45:53.023Z,76.2961
2023-04-15T00:46:54.515Z,77.1028
2023-04-15T00:47:56.082Z,78.0093
2023-04-15T00:48:57.985Z,79.7838
2023-04-15T00:49:59.466Z,79.7151
2023-04-15T00:51:00.992Z,78.7797
2023-04-15T00:52:02.524Z,78.1102
2023-04-15T00:53:04.092Z,77.7033
2023-04-15T00:54:05.586Z,77.2933
2023-04-15T00:55:07.052Z,76.5106
2023-04-15T00:56:08.531Z,77.8612
2023-04-15T00:57:10.056Z,75.8527
2023-04-15T00:58:11.594Z,75.9386
2023-04-15T00:59:13.125Z,75.9221
2023-04-15T01:00:14.645Z,76.3591
2023-04-15T01:01:16.211Z,75.7906
2023-04-15T01:02:18.116Z,76.4417
2023-04-15T01:03:20.162Z,75.0490
2023-04-15T01:04:21.878Z,75.6066
2023-04-15T01:05:23.414Z,75.6793
2023-04-15T01:06:24.913Z,74.4628
2023-04-15T01:07:26.422Z,74.6992
2023-04-15T01:08:27.864Z,75.1251
2023-04-15T01:09:29.379Z,74.8961
2023-04-15T01:10:30.887Z,75.6596
2023-04-15T01:11:32.417Z,76.3759
2023-04-15T01:12:33.927Z,75.4133
2023-04-15T01:13:35.458Z,75.5077
2023-04-15T01:14:36.968Z,75.2164
2023-04-15T01:15:38.432Z,75.9895
2023-04-15T01:16:39.983Z,74.6799
2023-04-15T01:17:41.475Z,74.1068
2023-04-15T01:18:42.954Z,74.6934
2023-04-15T01:19:44.417Z,74.2645
2023-04-15T01:20:45.920Z,73.6881
2023-04-15T01:21:47.457Z,73.0811
2023-04-15T01:22:48.961Z,73.2424
2023-04-15T01:23:50.434Z,73.3128
2023-04-15T01:24:51.966Z,72.4270
2023-04-15T01:25:53.422Z,72.2624
2023-04-15T01:26:54.917Z,72.0910
2023-04-15T01:27:56.372Z,72.8402
2023-04-15T01:28:58.443Z,72.7459
2023-04-15T01:29:57.815Z,72.0556
2023-04-15T01:30:59.325Z,72.4258
2023-04-15T01:32:00.789Z,73.1547
2023-04-15T01:33:02.399Z,73.0032
2023-04-15T01:34:03.882Z,72.5169
2023-04-15T01:35:05.394Z,72.9744
2023-04-15T01:36:06.926Z,73.7946
2023-04-15T01:37:08.390Z,74.1725
2023-04-15T01:38:09.885Z,73.6541
2023-04-15T01:39:11.360Z,73.7099
2023-04-15T01:40:12.855Z,74.4148
2023-04-15T01:41:14.336Z,74.6480
2023-04-15T01:42:15.898Z,74.1590
2023-04-15T01:43:17.410Z,73.6041
2023-04-15T01:44:18.927Z,73.8557
2023-04-15T01:45:20.463Z,74.3891
2023-04-15T01:46:22.060Z,73.5308
2023-04-15T01:47:23.622Z,73.2335
2023-04-15T01:48:25.097Z,73.6093
2023-04-15T01:49:26.652Z,72.9364
2023-04-15T01:50:28.148Z,73.0443
2023-04-15T01:51:30.692Z,73.8966
2023-04-15T01:52:29.849Z,73.1298
2023-04-15T01:53:31.338Z,72.5362
2023-04-15T01:54:32.847Z,72.8082
2023-04-15T01:55:34.326Z,73.0370
2023-04-15T01:56:35.782Z,73.0694
2023-04-15T01:57:37.266Z,72.3200
2023-04-15T01:58:38.765Z,72.7151
2023-04-15T01:59:40.277Z,74.0391
2023-04-15T02:00:41.834Z,74.9403
2023-04-15T02:01:43.312Z,75.8433
2023-04-15T02:02:45.173Z,76.1604
2023-04-15T02:03:46.969Z,76.1639
2023-04-15T02:04:48.585Z,77.2296
2023-04-15T02:05:50.120Z,77.5802
2023-04-15T02:06:51.606Z,77.3054
2023-04-15T02:07:53.094Z,76.8443
2023-04-15T02:08:54.556Z,77.1015
2023-04-15T02:09:56.041Z,77.7089
2023-04-15T02:10:57.519Z,76.9176
2023-04-15T02:11:59.021Z,76.5773
2023-04-15T02:13:00.510Z,76.6424
2023-04-15T02:14:02.074Z,76.8360
2023-04-15T02:15:03.536Z,76.5537
2023-04-15T02:16:05.053Z,76.6457
2023-04-15T02:17:06.525Z,75.4253
2023-04-15T02:18:08.081Z,75.8748
2023-04-15T02:19:09.800Z,76.1613
2023-04-15T02:20:11.291Z,75.8290
2023-04-15T02:21:12.805Z,77.2915
2023-04-15T02:22:14.292Z,76.8650
2023-04-15T02:23:15.739Z,77.7408
2023-04-15T02:24:17.228Z,78.1808
2023-04-15T02:25:18.699Z,78.3662
2023-04-15T02:26:20.213Z,78.8698
2023-04-15T02:27:21.766Z,78.7705
2023-04-15T02:28:23.512Z,79.2206
2023-04-15T02:29:24.962Z,78.9814
2023-04-15T02:30:26.452Z,79.0292
2023-04-15T02:31:28.013Z,79.6239
2023-04-15T02:32:29.474Z,78.9590
2023-04-15T02:33:30.937Z,78.7677
2023-04-15T02:34:32.459Z,78.5542
2023-04-15T02:35:33.903Z,78.8534
2023-04-15T02:36:35.416Z,78.9281
2023-04-15T02:37:36.883Z,79.1468
2023-04-15T02:38:38.397Z,78.8064
2023-04-15T02:39:39.904Z,79.1404
2023-04-15T02:40:41.410Z,78.9187
2023-04-15T02:41:42.885Z,76.9796
2023-04-15T02:42:44.399Z,76.6886
2023-04-15T02:43:46.048Z,76.6490
2023-04-15T02:44:47.663Z,75.9346
2023-04-15T02:45:49.245Z,76.3109
2023-04-15T02:46:51.693Z,77.1065
2023-04-15T02:47:50.944Z,76.9813
2023-04-15T02:48:52.369Z,76.4654
2023-04-15T02:49:53.942Z,76.4063
2023-04-15T02:50:55.544Z,76.4501
2023-04-15T02:51:57.025Z,76.8402
2023-04-15T02:52:58.517Z,77.3922
2023-04-15T02:54:00.014Z,77.9769
2023-04-15T02:55:01.568Z,77.7320
2023-04-15T02:56:03.058Z,77.7053
2023-04-15T02:57:04.536Z,78.1360
2023-04-15T02:58:06.088Z,78.0154
2023-04-15T02:59:07.720Z,77.7775
2023-04-15T03:00:09.191Z,77.9794
2023-04-15T03:01:10.728Z,78.0438
2023-04-15T03:02:12.506Z,78.3081
2023-04-15T03:03:14.233Z,78.1662
2023-04-15T03:04:16.044Z,78.6974
2023-04-15T03:05:17.626Z,78.8661
2023-04-15T03:06:19.166Z,78.8911
2023-04-15T03:07:20.629Z,78.5110
2023-04-15T03:08:22.113Z,78.7714
2023-04-15T03:09:23.594Z,78.6783
2023-04-15T03:10:25.071Z,78.1636
2023-04-15T03:11:26.630Z,77.9396
2023-04-15T03:12:28.143Z,77.6538
2023-04-15T03:13:28.329Z,77.7617
2023-04-15T03:14:29.823Z,77.5418
2023-04-15T03:15:31.447Z,77.8114
2023-04-15T03:16:32.917Z,78.1750
2023-04-15T03:17:34.472Z,78.0242
2023-04-15T03:18:35.924Z,77.8033
2023-04-15T03:19:37.418Z,77.7134
2023-04-15T03:20:39.173Z,77.7255
2023-04-15T03:21:40.648Z,77.7888
2023-04-15T03:22:42.121Z,78.1257
2023-04-15T03:23:43.570Z,78.1747
2023-04-15T03:24:45.080Z,77.9924
2023-04-15T03:25:46.630Z,78.1538
2023-04-15T03:26:48.135Z,77.6740
2023-04-15T03:27:49.667Z,78.0534
2023-04-15T03:28:51.203Z,78.1441
2023-04-15T03:29:52.739Z,77.4757
2023-04-15T03:30:54.387Z,77.0609
2023-04-15T03:31:54.579Z,76.8065
2023-04-15T03:32:56.218Z,76.8659
2023-04-15T03:33:57.766Z,77.2118
2023-04-15T03:34:59.373Z,76.8664
2023-04-15T03:36:00.961Z,76.9586
2023-04-15T03:37:02.508Z,76.6390
2023-04-15T03:38:04.051Z,76.2028
2023-04-15T03:39:06.683Z,75.9953
2023-04-15T03:40:05.827Z,76.4920
2023-04-15T03:41:07.461Z,76.8687
2023-04-15T03:42:08.944Z,76.9583
2023-04-15T03:43:10.502Z,77.9916
2023-04-15T03:44:12.036Z,78.8751
2023-04-15T03:45:13.574Z,78.2496
2023-04-15T03:46:15.256Z,78.0259
2023-04-15T03:47:16.716Z,77.7756
2023-04-15T03:48:18.920Z,77.8892
2023-04-15T03:49:20.426Z,77.7718
2023-04-15T03:50:21.971Z,77.5264
2023-04-15T03:51:23.577Z,77.6444
2023-04-15T03:52:25.126Z,77.6829
2023-04-15T03:53:26.671Z,78.2251
2023-04-15T03:54:28.242Z,78.2198
2023-04-15T03:55:29.810Z,78.3234
2023-04-15T03:56:32.492Z,78.0142
2023-04-15T03:57:31.750Z,78.5784
2023-04-15T03:58:33.281Z,78.1680
2023-04-15T03:59:34.812Z,78.3816
2023-04-15T04:00:36.429Z,78.5069
2023-04-15T04:01:38.116Z,78.5545
2023-04-15T04:02:40.208Z,78.0953
2023-04-15T04:03:40.361Z,78.3465
2023-04-15T04:04:39.832Z,78.8752
2023-04-15T04:05:41.692Z,78.5432
2023-04-15T04:06:43.460Z,78.5481
2023-04-15T04:07:45.033Z,78.5161
2023-04-15T04:08:46.609Z,78.3263
2023-04-15T04:09:48.160Z,77.9876
2023-04-15T04:10:49.692Z,78.2090
2023-04-15T04:11:51.280Z,78.1625
2023-04-15T04:12:52.818Z,77.9563
2023-04-15T04:13:54.438Z,78.1271
2023-04-15T04:14:55.993Z,78.3143
2023-04-15T04:15:58.758Z,77.8793
2023-04-15T04:16:58.032Z,78.1134
2023-04-15T04:17:59.637Z,78.0079
2023-04-15T04:19:02.117Z,77.9686
2023-04-15T04:20:02.049Z,77.7679
2023-04-15T04:21:03.617Z,78.0755
2023-04-15T04:22:05.190Z,78.3201
2023-04-15T04:23:06.723Z,78.4344
2023-04-15T04:24:08.309Z,78.0879
2023-04-15T04:25:09.876Z,78.1794
2023-04-15T04:26:11.460Z,77.5203
2023-04-15T04:27:13.059Z,77.5429
2023-04-15T04:28:14.602Z,77.3482
2023-04-15T04:29:16.209Z,77.5751
2023-04-15T04:30:17.748Z,77.5591
2023-04-15T04:31:19.304Z,77.4939
2023-04-15T04:32:20.921Z,78.0971
2023-04-15T04:33:22.587Z,78.0715
2023-04-15T04:34:24.109Z,77.6124
2023-04-15T04:35:25.672Z,77.6638
2023-04-15T04:36:27.193Z,78.0453
2023-04-15T04:37:28.788Z,78.1098
2023-04-15T04:38:30.303Z,77.5394
2023-04-15T04:39:31.870Z,77.3298
2023-04-15T04:40:33.435Z,77.2512
2023-04-15T04:41:35.188Z,76.9343
2023-04-15T04:42:40.418Z,76.8505
2023-04-15T04:43:37.349Z,76.5621
2023-04-15T04:44:38.926Z,76.4521
2023-04-15T04:45:40.579Z,76.5924
2023-04-15T04:46:42.131Z,76.3524
2023-04-15T04:47:43.797Z,76.1798
2023-04-15T04:48:47.563Z,76.3349
2023-04-15T04:49:46.787Z,76.2111
2023-04-15T04:50:48.341Z,76.0303
2023-04-15T04:51:49.907Z,76.0260
2023-04-15T04:52:51.485Z,76.2722
2023-04-15T04:53:53.043Z,76.3510
2023-04-15T04:54:54.587Z,76.1722
2023-04-15T04:55:56.203Z,75.9785
2023-04-15T04:56:57.802Z,75.2501
2023-04-15T04:57:59.391Z,75.2632
2023-04-15T04:59:01.317Z,75.1865
2023-04-15T05:00:03.156Z,75.1702
2023-04-15T05:01:04.886Z,75.1697
2023-04-15T05:02:06.597Z,75.1730
2023-04-15T05:03:09.013Z,75.3992
2023-04-15T05:04:08.672Z,75.8561
2023-04-15T05:05:10.286Z,75.8200
2023-04-15T05:06:11.846Z,75.4984
2023-04-15T05:07:13.469Z,75.7980
2023-04-15T05:08:14.976Z,76.2098
2023-04-15T05:09:16.558Z,76.2966
2023-04-15T05:10:18.184Z,76.6492
2023-04-15T05:11:19.807Z,76.3288
2023-04-15T05:12:21.342Z,76.1237
2023-04-15T05:13:22.893Z,76.0090
2023-04-15T05:14:24.470Z,76.7905
2023-04-15T05:15:26.061Z,76.9519
2023-04-15T05:16:27.658Z,77.7589
2023-04-15T05:17:29.331Z,77.6552
2023-04-15T05:18:30.921Z,77.9755
2023-04-15T05:19:32.522Z,78.0309
2023-04-15T05:20:34.090Z,77.6284
2023-04-15T05:21:39.608Z,77.1888
2023-04-15T05:22:36.846Z,77.0226
2023-04-15T05:23:38.424Z,77.1192
2023-04-15T05:24:40.023Z,76.6676
2023-04-15T05:25:41.588Z,76.4728
2023-04-15T05:26:43.219Z,76.7477
2023-04-15T05:27:44.753Z,76.4287
2023-04-15T05:28:46.316Z,76.5183
2023-04-15T05:29:47.877Z,76.2666
2023-04-15T05:30:49.493Z,75.8882
2023-04-15T05:31:51.029Z,76.2206
2023-04-15T05:32:52.658Z,76.1540
2023-04-15T05:33:54.282Z,76.2660
2023-04-15T05:34:55.882Z,76.2361
2023-04-15T05:35:57.485Z,76.5605
2023-04-15T05:36:59.050Z,76.6066
2023-04-15T05:38:00.579Z,76.1507
2023-04-15T05:39:02.796Z,76.2012
2023-04-15T05:40:02.266Z,76.2100
2023-04-15T05:41:03.817Z,75.6861
2023-04-15T05:42:05.408Z,75.9570
2023-04-15T05:43:07.037Z,76.0279
2023-04-15T05:44:08.607Z,76.1735
2023-04-15T05:45:10.168Z,76.1157
2023-04-15T05:46:11.931Z,76.0462
2023-04-15T05:47:13.472Z,75.9184
2023-04-15T05:48:15.006Z,75.6598
2023-04-15T05:49:16.569Z,76.0352
2023-04-15T05:50:18.119Z,76.3176
2023-04-15T05:51:19.774Z,75.7794
2023-04-15T05:52:21.502Z,75.8088
2023-04-15T05:53:23.027Z,75.9176
2023-04-15T05:54:23.338Z,75.6031
2023-04-15T05:55:24.924Z,75.7883
2023-04-15T05:56:26.695Z,75.6636
2023-04-15T05:57:28.225Z,75.7208
2023-04-15T05:58:29.809Z,75.3347
2023-04-15T05:59:31.428Z,75.3451
2023-04-15T06:00:32.952Z,75.8795
2023-04-15T06:01:34.568Z,76.1061
2023-04-15T06:02:36.366Z,76.0381
2023-04-15T06:03:38.800Z,75.2132
2023-04-15T06:04:38.291Z,74.4967
2023-04-15T06:05:39.888Z,74.4278
2023-04-15T06:06:41.434Z,74.8143
2023-04-15T06:07:43.011Z,74.9363
2023-04-15T06:08:44.559Z,75.0585
2023-04-15T06:09:46.072Z,74.8467
2023-04-15T06:10:47.580Z,74.5433
2023-04-15T06:11:49.142Z,74.6983
2023-04-15T06:12:50.678Z,74.9942
2023-04-15T06:13:53.312Z,75.3739
2023-04-15T06:14:52.672Z,74.8688
2023-04-15T06:15:54.245Z,74.7990
2023-04-15T06:16:55.819Z,74.5553
2023-04-15T06:17:57.473Z,74.5469
2023-04-15T06:18:59.157Z,74.5964
2023-04-15T06:20:00.674Z,74.6841
2023-04-15T06:21:02.186Z,74.5271
2023-04-15T06:22:03.706Z,74.4885
2023-04-15T06:23:05.233Z,74.5139
2023-04-15T06:24:06.792Z,74.2388
2023-04-15T06:25:08.310Z,74.2108
2023-04-15T06:26:09.855Z,73.7902
2023-04-15T06:27:11.350Z,73.1704
2023-04-15T06:28:12.924Z,73.0768
2023-04-15T06:29:14.463Z,73.1454
2023-04-15T06:30:15.972Z,73.0842
2023-04-15T06:31:17.504Z,73.0076
2023-04-15T06:32:18.965Z,73.6618
2023-04-15T06:33:20.477Z,73.4960
2023-04-15T06:34:22.065Z,73.4792
2023-04-15T06:35:23.594Z,72.5545
2023-04-15T06:36:25.140Z,72.2019
2023-04-15T06:37:26.641Z,72.2506
2023-04-15T06:38:28.161Z,71.2247
2023-04-15T06:39:29.755Z,71.0768
2023-04-15T06:40:31.249Z,72.1462
2023-04-15T06:41:32.775Z,71.0654
2023-04-15T06:42:34.335Z,71.5133
2023-04-15T06:43:35.817Z,71.3867
2023-04-15T06:44:37.385Z,71.6432
2023-04-15T06:45:38.864Z,72.0651
2023-04-15T06:46:40.361Z,71.1760
2023-04-15T06:47:41.929Z,71.1431
2023-04-15T06:48:43.377Z,71.0830
2023-04-15T06:49:44.876Z,71.3382
2023-04-15T06:50:46.415Z,71.3570
2023-04-15T06:51:47.883Z,71.4245
2023-04-15T06:52:49.467Z,71.6709
2023-04-15T06:53:50.970Z,70.5218
2023-04-15T06:54:52.472Z,71.1805
2023-04-15T06:55:53.964Z,70.4678
2023-04-15T06:56:55.475Z,70.8124
2023-04-15T06:57:56.935Z,70.9258
2023-04-15T06:58:58.468Z,70.8293
2023-04-15T06:59:59.964Z,71.4052
2023-04-15T07:01:01.522Z,71.1897
2023-04-15T07:02:03.278Z,71.4310
2023-04-15T07:03:04.805Z,70.8769
2023-04-15T07:04:06.475Z,70.4379
2023-04-15T07:05:08.023Z,70.3275
2023-04-15T07:06:09.538Z,70.3572
2023-04-15T07:07:11.054Z,69.9529
2023-04-15T07:08:12.517Z,69.5965
2023-04-15T07:09:14.042Z,70.0495
2023-04-15T07:10:15.574Z,69.5024
2023-04-15T07:11:17.165Z,69.4007
2023-04-15T07:12:18.681Z,69.7909
2023-04-15T07:13:20.188Z,69.6280
2023-04-15T07:14:21.797Z,69.0207
2023-04-15T07:15:23.322Z,69.7955
2023-04-15T07:16:25.197Z,70.0409
2023-04-15T07:17:25.359Z,70.4749
2023-04-15T07:18:26.859Z,70.8282
2023-04-15T07:19:28.338Z,71.0050
2023-04-15T07:20:29.858Z,71.1307
2023-04-15T07:21:31.378Z,71.1087
2023-04-15T07:22:32.837Z,71.5893
2023-04-15T07:23:34.349Z,72.2189
2023-04-15T07:24:36.013Z,72.2806
2023-04-15T07:25:37.535Z,71.9455
2023-04-15T07:26:39.001Z,71.8539
2023-04-15T07:27:40.478Z,71.6126
2023-04-15T07:28:41.953Z,71.8073
2023-04-15T07:29:43.497Z,72.0759
2023-04-15T07:30:45.096Z,72.6913
2023-04-15T07:31:46.656Z,72.8793
2023-04-15T07:32:48.226Z,73.2056
2023-04-15T07:33:49.718Z,73.5814
2023-04-15T07:34:51.179Z,73.2578
2023-04-15T07:35:52.725Z,73.9062
2023-04-15T07:36:54.235Z,74.0263
2023-04-15T07:37:55.684Z,73.9868
2023-04-15T07:38:57.151Z,74.1814
2023-04-15T07:39:58.636Z,74.6573
2023-04-15T07:41:00.205Z,74.6680
2023-04-15T07:42:01.704Z,74.5421
2023-04-15T07:43:03.188Z,74.7148
2023-04-15T07:44:04.698Z,75.2247
2023-04-15T07:45:06.157Z,74.8137
2023-04-15T07:46:07.776Z,74.7098
2023-04-15T07:47:09.304Z,74.7933
2023-04-15T07:48:10.740Z,75.3120
2023-04-15T07:49:12.280Z,74.6354
2023-04-15T07:50:13.832Z,74.5431
2023-04-15T07:51:15.343Z,74.7481
2023-04-15T07:52:16.968Z,74.7551
2023-04-15T07:53:18.385Z,74.5508
2023-04-15T07:54:19.876Z,74.5518
2023-04-15T07:55:21.386Z,75.2463
2023-04-15T07:56:22.942Z,75.1622
2023-04-15T07:57:24.399Z,74.6164
2023-04-15T07:58:25.836Z,74.6820
2023-04-15T07:59:27.342Z,74.6909
2023-04-15T08:00:28.880Z,74.4144
2023-04-15T08:01:30.388Z,74.6510
2023-04-15T08:02:32.206Z,73.9720
2023-04-15T08:03:34.079Z,73.6489
2023-04-15T08:04:36.124Z,73.7831
2023-04-15T08:05:37.717Z,74.0821
2023-04-15T08:06:39.287Z,74.0531
2023-04-15T08:07:40.780Z,74.3329
2023-04-15T08:08:42.288Z,73.8997
2023-04-15T08:09:43.756Z,74.0395
2023-04-15T08:10:45.255Z,73.4715
2023-04-15T08:11:46.767Z,73.6224
2023-04-15T08:12:48.275Z,73.4663
2023-04-15T08:13:49.796Z,73.3192
2023-04-15T08:14:51.316Z,73.3813
2023-04-15T08:15:52.915Z,73.1603
2023-04-15T08:16:54.484Z,72.7898
2023-04-15T08:17:56.250Z,72.2286
2023-04-15T08:18:57.842Z,72.2190
2023-04-15T08:19:59.400Z,72.2506
2023-04-15T08:21:00.904Z,72.0183
2023-04-15T08:22:02.409Z,72.1838
2023-04-15T08:23:03.930Z,71.9767
2023-04-15T08:24:05.596Z,72.1445
2023-04-15T08:25:07.082Z,71.4801
2023-04-15T08:26:08.707Z,70.6840
2023-04-15T08:27:10.177Z,70.8768
2023-04-15T08:28:11.693Z,70.3554
2023-04-15T08:29:13.276Z,69.8011
2023-04-15T08:30:14.767Z,69.8740
2023-04-15T08:31:16.376Z,68.9594
2023-04-15T08:32:18.003Z,68.8202
2023-04-15T08:33:19.518Z,68.4025
2023-04-15T08:34:21.062Z,68.5969
2023-04-15T08:35:22.538Z,69.4108
2023-04-15T08:36:24.017Z,70.8347
2023-04-15T08:37:25.632Z,71.5824
2023-04-15T08:38:27.123Z,71.4912
2023-04-15T08:39:28.671Z,71.0388
2023-04-15T08:40:30.272Z,70.3684
2023-04-15T08:41:31.763Z,70.3211
2023-04-15T08:42:33.314Z,70.2913
2023-04-15T08:43:34.801Z,70.3003
2023-04-15T08:44:36.317Z,70.4038
2023-04-15T08:45:37.846Z,70.0041
2023-04-15T08:46:39.622Z,70.1979
2023-04-15T08:47:41.333Z,70.5203
2023-04-15T08:48:42.963Z,70.7240
2023-04-15T08:49:44.471Z,70.7495
2023-04-15T08:50:45.973Z,70.2767
2023-04-15T08:51:47.465Z,70.4459
2023-04-15T08:52:49.029Z,70.5799
2023-04-15T08:53:50.494Z,69.4783
2023-04-15T08:54:52.066Z,69.7066
2023-04-15T08:55:53.637Z,69.2294
2023-04-15T08:56:55.280Z,69.6345
2023-04-15T08:57:56.828Z,68.8944
2023-04-15T08:58:58.305Z,68.6113
2023-04-15T08:59:59.852Z,68.5355
2023-04-15T09:01:01.383Z,67.4607
2023-04-15T09:02:02.980Z,67.0599
2023-04-15T09:03:04.625Z,67.1777
2023-04-15T09:04:06.234Z,67.4687
2023-04-15T09:05:07.774Z,67.4809
2023-04-15T09:06:09.312Z,68.7455
2023-04-15T09:07:10.835Z,70.6185
2023-04-15T09:08:12.443Z,71.1553
2023-04-15T09:09:13.975Z,71.2176
2023-04-15T09:10:15.500Z,72.1732
2023-04-15T09:11:20.104Z,72.3156
2023-04-15T09:12:17.506Z,72.6854
2023-04-15T09:13:19.096Z,73.1466
2023-04-15T09:14:20.875Z,72.7912
2023-04-15T09:15:22.398Z,72.3347
2023-04-15T09:16:24.132Z,73.6320
2023-04-15T09:17:25.854Z,74.0041
2023-04-15T09:18:27.435Z,74.4343
2023-04-15T09:19:28.961Z,74.4045
2023-04-15T09:20:30.524Z,74.8666
2023-04-15T09:21:31.991Z,74.2098
2023-04-15T09:22:33.564Z,74.0231
2023-04-15T09:23:35.098Z,73.8723
2023-04-15T09:24:36.639Z,73.6237
2023-04-15T09:25:38.249Z,74.0871
2023-04-15T09:26:39.740Z,73.9616
2023-04-15T09:27:41.237Z,73.1549
2023-04-15T09:28:42.773Z,73.4292
2023-04-15T09:29:44.359Z,74.2782
2023-04-15T09:30:45.950Z,73.7387
2023-04-15T09:31:47.535Z,73.3394
2023-04-15T09:32:49.182Z,71.7240
2023-04-15T09:33:50.668Z,71.5727
2023-04-15T09:34:52.215Z,70.9906
2023-04-15T09:35:53.721Z,68.7420
2023-04-15T09:36:55.301Z,70.5923
2023-04-15T09:37:56.875Z,70.5577
2023-04-15T09:38:58.414Z,72.4734
2023-04-15T09:40:00.033Z,71.5527
2023-04-15T09:41:01.595Z,70.5390
2023-04-15T09:42:03.111Z,71.1105
2023-04-15T09:43:04.698Z,70.7731
2023-04-15T09:44:06.224Z,70.1441
2023-04-15T09:45:07.765Z,69.8385
2023-04-15T09:46:09.754Z,70.4027
2023-04-15T09:47:11.292Z,70.5274
2023-04-15T09:48:12.822Z,69.1522
2023-04-15T09:49:14.404Z,68.8175
2023-04-15T09:50:16.063Z,68.4756
2023-04-15T09:51:17.575Z,67.6015
2023-04-15T09:52:19.330Z,67.5426
2023-04-15T09:53:20.876Z,68.1828
2023-04-15T09:54:22.401Z,67.5117
2023-04-15T09:55:23.926Z,65.8953
2023-04-15T09:56:25.498Z,64.2147
2023-04-15T09:57:27.006Z,63.6670
2023-04-15T09:58:28.556Z,64.6036
2023-04-15T09:59:30.126Z,64.6563
2023-04-15T10:00:31.721Z,64.5768
2023-04-15T10:01:33.464Z,63.8574
2023-04-15T10:02:35.681Z,65.2829
2023-04-15T10:03:35.635Z,66.9342
2023-04-15T10:04:34.924Z,68.3275
2023-04-15T10:05:36.555Z,68.0521
2023-04-15T10:06:38.108Z,66.8913
2023-04-15T10:07:39.896Z,68.2216
2023-04-15T10:08:41.598Z,66.8115
2023-04-15T10:09:43.173Z,66.9700
2023-04-15T10:10:44.683Z,67.8258
2023-04-15T10:11:46.245Z,67.7201
2023-04-15T10:12:47.869Z,67.7976
2023-04-15T10:13:49.422Z,66.8716
2023-04-15T10:14:51.071Z,67.4093
2023-04-15T10:15:52.653Z,68.5806
2023-04-15T10:16:54.157Z,68.6175
2023-04-15T10:17:56.020Z,69.8583
2023-04-15T10:18:57.527Z,70.9472
2023-04-15T10:19:59.295Z,71.3041
2023-04-15T10:21:00.822Z,71.7490
2023-04-15T10:22:02.436Z,70.6395
2023-04-15T10:23:03.938Z,71.2707
2023-04-15T10:24:05.490Z,71.9873
2023-04-15T10:25:07.123Z,72.3211
2023-04-15T10:26:08.954Z,73.1169
2023-04-15T10:27:10.690Z,72.3640
2023-04-15T10:28:12.288Z,71.6798
2023-04-15T10:29:13.883Z,71.8061
2023-04-15T10:30:15.528Z,70.2833
2023-04-15T10:31:17.177Z,69.8196
2023-04-15T10:32:18.889Z,70.7808
2023-04-15T10:33:20.611Z,70.5197
2023-04-15T10:34:22.201Z,71.2054
2023-04-15T10:35:23.765Z,71.5301
2023-04-15T10:36:25.315Z,70.7865
2023-04-15T10:37:27.005Z,71.8298
2023-04-15T10:38:28.653Z,72.0159
2023-04-15T10:39:30.248Z,71.6766
2023-04-15T10:40:31.837Z,70.3385
2023-04-15T10:41:33.413Z,69.6274
2023-04-15T10:42:34.948Z,69.6382
2023-04-15T10:43:36.416Z,70.3072
2023-04-15T10:44:38.025Z,70.6795
2023-04-15T10:45:39.565Z,70.2532
2023-04-15T10:46:41.266Z,69.8315
2023-04-15T10:47:42.834Z,70.3388
2023-04-15T10:48:44.355Z,68.9405
2023-04-15T10:49:45.912Z,68.5158
2023-04-15T10:50:47.464Z,69.9811
2023-04-15T10:51:48.939Z,73.1781
2023-04-15T10:52:50.529Z,74.4714
2023-04-15T10:53:52.057Z,74.2803
2023-04-15T10:54:53.643Z,75.0270
2023-04-15T10:55:55.182Z,74.7333
2023-04-15T10:56:56.662Z,74.5049
2023-04-15T10:57:58.191Z,74.1597
2023-04-15T10:58:59.712Z,73.4740
2023-04-15T11:00:01.210Z,72.9892
2023-04-15T11:01:02.759Z,72.2972
2023-04-15T11:02:04.560Z,73.9672
2023-04-15T11:03:06.458Z,74.5729
2023-04-15T11:04:08.810Z,74.3969
2023-04-15T11:05:08.112Z,74.2410
2023-04-15T11:06:09.644Z,73.4433
2023-04-15T11:07:11.126Z,72.7541
2023-04-15T11:08:12.629Z,72.8398
2023-04-15T11:09:14.360Z,72.1153
2023-04-15T11:10:16.026Z,73.3678
2023-04-15T11:11:17.586Z,72.7918
2023-04-15T11:12:18.996Z,71.6239
2023-04-15T11:13:20.515Z,71.5730
2023-04-15T11:14:22.060Z,71.7917
2023-04-15T11:15:23.544Z,71.2063
2023-04-15T11:16:25.072Z,70.9417
2023-04-15T11:17:26.586Z,71.2378
2023-04-15T11:18:28.116Z,70.8446
2023-04-15T11:19:29.648Z,72.1424
2023-04-15T11:20:31.232Z,72.2400
2023-04-15T11:21:32.773Z,73.3689
2023-04-15T11:22:34.254Z,74.0413
2023-04-15T11:23:35.795Z,74.5458
2023-04-15T11:24:37.309Z,74.5055
2023-04-15T11:25:39.028Z,74.8587
2023-04-15T11:26:40.751Z,75.5828
2023-04-15T11:27:42.271Z,75.3974
2023-04-15T11:28:43.948Z,75.7611
2023-04-15T11:29:45.679Z,76.6208
2023-04-15T11:30:47.450Z,77.1404
2023-04-15T11:31:49.048Z,77.2865
2023-04-15T11:32:50.719Z,77.1310
2023-04-15T11:33:52.248Z,76.3673
2023-04-15T11:34:53.801Z,76.2249
2023-04-15T11:35:56.462Z,76.1920
2023-04-15T11:36:55.674Z,75.9579
2023-04-15T11:37:57.225Z,75.7136
2023-04-15T11:38:58.846Z,76.0103
2023-04-15T11:40:00.415Z,76.3004
2023-04-15T11:41:01.984Z,76.4207
2023-04-15T11:42:03.596Z,76.8284
2023-04-15T11:43:05.172Z,76.8862
2023-04-15T11:44:06.813Z,76.9605
2023-04-15T11:45:08.401Z,77.0000
2023-04-15T11:46:10.048Z,76.7660
2023-04-15T11:47:11.622Z,76.3905
2023-04-15T11:48:13.198Z,77.0654
2023-04-15T11:49:14.808Z,76.6434
2023-04-15T11:50:16.397Z,76.5963
2023-04-15T11:51:17.943Z,76.6256
2023-04-15T11:52:19.550Z,77.1656
2023-04-15T11:53:21.101Z,77.2495
2023-04-15T11:54:22.660Z,77.3933
2023-04-15T11:55:24.211Z,77.0257
2023-04-15T11:56:25.739Z,77.6132
2023-04-15T11:57:27.333Z,77.5251
2023-04-15T11:58:28.887Z,77.3587
2023-04-15T11:59:45.007Z,75.6904
2023-04-15T12:00:32.039Z,74.8020
2023-04-15T12:01:33.625Z,74.5887
2023-04-15T12:02:35.807Z,74.1840
2023-04-15T12:03:35.289Z,74.3326
2023-04-15T12:04:37.849Z,74.2330
2023-04-15T12:05:37.225Z,73.1436
2023-04-15T12:06:38.744Z,72.3094
2023-04-15T12:07:40.217Z,71.8679
2023-04-15T12:08:41.763Z,71.3889
2023-04-15T12:09:43.214Z,70.6408
2023-04-15T12:10:44.714Z,69.6619
2023-04-15T12:11:46.156Z,69.7539
2023-04-15T12:12:47.750Z,70.0699
2023-04-15T12:13:49.213Z,70.3547
2023-04-15T12:14:50.697Z,71.4266
2023-04-15T12:15:52.314Z,72.3124
2023-04-15T12:16:54.053Z,72.2803
2023-04-15T12:17:55.553Z,71.7482
2023-04-15T12:18:57.187Z,71.9411
2023-04-15T12:19:58.696Z,71.8122
2023-04-15T12:21:00.159Z,70.4518
2023-04-15T12:22:01.704Z,69.8667
2023-04-15T12:23:03.136Z,69.5655
2023-04-15T12:24:05.557Z,69.3720